createdAt,value
2022-11-19T00:01:51.728Z,20.08
2022-11-19T00:06:48.135Z,20.25
2022-11-19T00:12:02.737Z,18.70
2022-11-19T00:16:59.058Z,19.52
2022-11-19T00:21:55.396Z,18.42
2022-11-19T00:26:51.735Z,19.23
2022-11-19T00:31:48.062Z,18.63
2022-11-19T00:36:44.466Z,18.42
2022-11-19T00:41:40.807Z,20.10
2022-11-19T00:46:37.247Z,19.27
2022-11-19T00:51:33.697Z,20.38
2022-11-19T00:56:30.956Z,20.40
2022-11-19T01:01:27.404Z,19.00
2022-11-19T01:06:25.496Z,19.70
2022-11-19T01:11:28.309Z,17.10
2022-11-19T01:16:28.173Z,19.00
2022-11-19T01:21:28.091Z,20.25
2022-11-19T01:26:25.232Z,19.30
2022-11-19T01:31:27.525Z,20.10
2022-11-19T01:36:26.201Z,19.58
2022-11-19T01:41:25.478Z,19.10
2022-11-19T01:46:24.195Z,19.67
2022-11-19T01:51:29.443Z,18.85
2022-11-19T01:56:27.059Z,18.52
2022-11-19T02:01:23.924Z,19.30
2022-11-19T02:06:20.961Z,19.45
2022-11-19T02:11:35.523Z,18.00
2022-11-19T02:16:44.908Z,19.73
2022-11-19T02:22:01.704Z,18.55
2022-11-19T02:27:19.536Z,17.30
2022-11-19T02:32:27.661Z,18.23
2022-11-19T02:37:30.346Z,18.50
2022-11-19T02:42:59.086Z,17.50
2022-11-19T02:53:04.251Z,17.95
2022-11-19T02:58:10.851Z,17.33
2022-11-19T03:03:33.334Z,19.13
2022-11-19T03:08:29.874Z,17.58
2022-11-19T03:14:12.556Z,17.13
2022-11-19T03:19:48.059Z,16.13
2022-11-19T03:24:50.622Z,15.80
2022-11-19T03:29:51.038Z,15.75
2022-11-19T03:34:50.851Z,15.45
2022-11-19T03:39:50.510Z,14.15
2022-11-19T03:44:51.812Z,14.77
2022-11-19T03:49:57.109Z,15.20
2022-11-19T03:54:53.536Z,14.50
2022-11-19T03:59:49.948Z,15.00
2022-11-19T04:04:46.262Z,15.65
2022-11-19T04:09:43.305Z,13.50
2022-11-19T04:14:39.675Z,15.27
2022-11-19T04:19:36.090Z,13.95
2022-11-19T04:24:32.460Z,12.98
2022-11-19T04:29:28.796Z,13.75
2022-11-19T04:34:25.109Z,12.25
2022-11-19T04:39:21.909Z,11.98
2022-11-19T04:44:18.389Z,12.30
2022-11-19T04:49:14.776Z,10.88
2022-11-19T04:54:11.204Z,11.05
2022-11-19T04:59:07.803Z,10.95
2022-11-19T05:04:04.314Z,10.43
2022-11-19T05:09:00.923Z,9.55
2022-11-19T05:13:57.321Z,10.50
2022-11-19T05:18:53.650Z,8.10
2022-11-19T05:23:50.013Z,8.73
2022-11-19T05:28:46.367Z,9.65
2022-11-19T05:33:42.777Z,8.57
2022-11-19T05:38:40.978Z,6.78
2022-11-19T05:43:37.362Z,8.23
2022-11-19T05:48:33.693Z,7.57
2022-11-19T05:53:30.100Z,7.63
2022-11-19T05:58:26.440Z,7.40
2022-11-19T06:03:22.883Z,7.60
2022-11-19T06:08:19.313Z,9.13
2022-11-19T06:13:15.737Z,6.13
2022-11-19T06:18:12.150Z,7.05
2022-11-19T06:23:08.641Z,6.93
2022-11-19T06:28:05.289Z,7.20
2022-11-19T06:33:01.636Z,6.65
2022-11-19T06:37:57.988Z,6.88
2022-11-19T06:42:54.396Z,7.43
2022-11-19T06:47:51.152Z,7.88
2022-11-19T06:52:47.520Z,7.43
2022-11-19T06:57:43.952Z,8.68
2022-11-19T07:02:41.031Z,7.90
2022-11-19T07:07:37.568Z,8.68
2022-11-19T07:12:34.027Z,8.38
2022-11-19T07:17:30.509Z,9.15
2022-11-19T07:22:27.503Z,7.93
2022-11-19T07:27:24.148Z,8.77
2022-11-19T07:32:20.876Z,8.60
2022-11-19T07:37:17.242Z,8.75
2022-11-19T07:42:32.298Z,9.52
2022-11-19T07:47:28.855Z,9.07
2022-11-19T07:52:25.426Z,8.05
2022-11-19T07:57:27.221Z,8.90
2022-11-19T08:02:26.457Z,8.98
2022-11-19T08:07:23.087Z,9.43
2022-11-19T08:12:19.848Z,9.10
2022-11-19T08:17:35.029Z,9.25
2022-11-19T08:22:31.391Z,10.60
2022-11-19T08:27:27.730Z,9.18
2022-11-19T08:32:24.087Z,8.93
2022-11-19T08:37:20.995Z,9.45
2022-11-19T08:42:35.916Z,9.98
2022-11-19T08:47:32.262Z,8.80
2022-11-19T08:52:28.616Z,9.23
2022-11-19T08:57:24.949Z,8.93
2022-11-19T09:02:21.420Z,8.13
2022-11-19T09:07:18.048Z,8.48
2022-11-19T09:12:14.416Z,7.75
2022-11-19T09:17:10.754Z,7.18
2022-11-19T09:22:07.104Z,7.35
2022-11-19T09:27:03.860Z,6.47
2022-11-19T09:32:00.181Z,7.15
2022-11-19T09:36:58.356Z,8.05
2022-11-19T09:41:54.761Z,7.10
2022-11-19T09:47:06.834Z,6.43
2022-11-19T09:52:14.669Z,5.93
2022-11-19T09:57:16.438Z,4.80
2022-11-19T10:02:31.213Z,5.75
2022-11-19T10:07:43.775Z,5.60
2022-11-19T10:12:52.302Z,5.43
2022-11-19T10:18:13.374Z,5.03
2022-11-19T10:23:28.525Z,4.85
2022-11-19T10:28:30.189Z,4.72
2022-11-19T10:33:35.517Z,4.18
2022-11-19T10:38:51.275Z,3.75
2022-11-19T10:43:55.565Z,3.95
2022-11-19T10:48:56.187Z,4.07
2022-11-19T10:53:55.182Z,3.65
2022-11-19T11:04:18.263Z,3.58
2022-11-19T11:09:28.680Z,4.22
2022-11-19T11:14:44.079Z,4.22
2022-11-19T11:19:40.527Z,3.08
2022-11-19T11:24:38.771Z,3.20
2022-11-19T11:29:35.239Z,2.72
2022-11-19T11:34:43.780Z,3.17
2022-11-19T11:44:50.970Z,3.35
2022-11-19T11:49:56.884Z,3.42
2022-11-19T11:55:06.006Z,3.83
2022-11-19T12:00:24.617Z,3.95
2022-11-19T12:05:21.233Z,4.03
2022-11-19T12:10:26.471Z,4.75
2022-11-19T12:15:38.251Z,3.80
2022-11-19T12:20:52.793Z,4.10
2022-11-19T12:26:17.314Z,4.05
2022-11-19T12:31:24.222Z,4.10
2022-11-19T12:41:45.547Z,3.72
2022-11-19T12:46:49.924Z,3.45
2022-11-19T12:52:00.049Z,2.97
2022-11-19T12:57:14.311Z,2.65
2022-11-19T13:02:21.483Z,3.67
2022-11-19T13:07:27.291Z,4.38
2022-11-19T13:12:32.682Z,3.40
2022-11-19T13:17:38.001Z,4.25
2022-11-19T13:22:41.038Z,4.18
2022-11-19T13:27:37.828Z,4.20
2022-11-19T13:33:14.484Z,3.50
2022-11-19T13:38:29.676Z,3.70
2022-11-19T13:43:44.771Z,3.42
2022-11-19T13:48:53.867Z,3.20
2022-11-19T13:53:50.493Z,3.80
2022-11-19T13:58:49.865Z,3.28
2022-11-19T14:04:25.143Z,3.05
2022-11-19T14:09:29.271Z,2.58
2022-11-19T14:14:53.147Z,3.90
2022-11-19T14:20:11.732Z,2.65
2022-11-19T14:25:27.799Z,2.80
2022-11-19T14:31:00.363Z,2.55
2022-11-19T14:35:56.901Z,2.38
2022-11-19T14:41:04.250Z,2.75
2022-11-19T14:46:09.078Z,2.38
2022-11-19T14:51:14.753Z,3.60
2022-11-19T14:56:13.383Z,2.95
2022-11-19T15:01:20.529Z,2.63
2022-11-19T15:06:18.960Z,2.97
2022-11-19T15:11:16.377Z,2.93
2022-11-19T15:16:21.914Z,2.58
2022-11-19T15:21:32.690Z,3.00
2022-11-19T15:26:35.020Z,2.65
2022-11-19T15:32:13.614Z,3.20
2022-11-19T15:37:19.960Z,3.92
2022-11-19T15:42:25.352Z,3.80
2022-11-19T15:47:28.862Z,3.55
2022-11-19T15:52:31.882Z,2.70
2022-11-19T15:57:28.441Z,2.80
2022-11-19T16:02:37.406Z,3.13
2022-11-19T16:07:34.279Z,3.67
2022-11-19T16:12:49.058Z,2.90
2022-11-19T16:17:48.752Z,2.95
2022-11-19T16:22:58.326Z,2.97
2022-11-19T16:27:58.443Z,2.80
2022-11-19T16:32:59.790Z,63.85
2022-11-19T16:37:58.413Z,9.35
2022-11-19T16:42:59.505Z,3.90
2022-11-19T16:47:57.220Z,3.13
2022-11-19T16:52:54.576Z,3.15
2022-11-19T16:57:54.345Z,3.47
2022-11-19T17:02:51.762Z,3.35
2022-11-19T17:08:05.841Z,3.72
2022-11-19T17:13:15.630Z,3.50
2022-11-19T17:18:15.015Z,3.47
2022-11-19T17:23:17.032Z,3.45
2022-11-19T17:28:25.964Z,4.10
2022-11-19T17:33:24.328Z,20.00
2022-11-19T17:38:24.396Z,6.55
2022-11-19T17:43:42.995Z,5.53
2022-11-19T17:48:41.472Z,5.45
2022-11-19T17:53:37.880Z,5.47
2022-11-19T17:58:34.263Z,5.05
2022-11-19T18:03:30.684Z,5.25
2022-11-19T18:08:27.056Z,4.82
2022-11-19T18:13:26.768Z,5.40
2022-11-19T18:18:23.585Z,5.78
2022-11-19T18:23:19.988Z,6.13
2022-11-19T18:28:16.968Z,5.93
2022-11-19T18:33:13.630Z,5.97
2022-11-19T18:38:10.049Z,6.45
2022-11-19T18:43:25.464Z,7.90
2022-11-19T18:48:22.120Z,8.35
2022-11-19T18:53:18.579Z,7.70
2022-11-19T18:58:15.339Z,8.20
2022-11-19T19:03:13.195Z,8.90
2022-11-19T19:08:09.586Z,8.02
2022-11-19T19:13:06.124Z,10.38
2022-11-19T19:18:07.572Z,11.07
2022-11-19T19:23:04.453Z,8.73
2022-11-19T19:28:00.841Z,9.25
2022-11-19T19:32:57.218Z,9.48
2022-11-19T19:37:53.603Z,8.10
2022-11-19T19:42:49.955Z,10.68
2022-11-19T19:47:46.417Z,8.73
2022-11-19T19:52:42.769Z,8.10
2022-11-19T19:57:39.143Z,12.27
2022-11-19T20:02:35.587Z,11.45
2022-11-19T20:07:32.007Z,12.07
2022-11-19T20:12:48.377Z,12.32
2022-11-19T20:17:44.750Z,13.60
2022-11-19T20:22:41.190Z,12.00
2022-11-19T20:27:37.624Z,16.25
2022-11-19T20:32:34.010Z,13.48
2022-11-19T20:37:30.375Z,11.93
2022-11-19T20:42:45.645Z,12.57
2022-11-19T20:47:42.029Z,13.45
2022-11-19T20:52:38.393Z,13.70
2022-11-19T20:57:34.820Z,11.35
2022-11-19T21:02:31.268Z,13.73
2022-11-19T21:07:27.716Z,12.70
2022-11-19T21:12:24.107Z,12.93
2022-11-19T21:17:20.614Z,11.25
2022-11-19T21:22:16.993Z,10.68
2022-11-19T21:27:13.379Z,9.70
2022-11-19T21:32:09.853Z,10.18
2022-11-19T21:37:06.263Z,10.93
2022-11-19T21:42:02.714Z,11.63
2022-11-19T21:46:59.124Z,12.10
2022-11-19T21:51:55.578Z,11.05
2022-11-19T21:56:52.140Z,14.27
2022-11-19T22:01:54.421Z,12.45
2022-11-19T22:06:51.268Z,11.82
2022-11-19T22:11:47.663Z,12.50
2022-11-19T22:16:44.357Z,12.40
2022-11-19T22:21:40.765Z,12.57
2022-11-19T22:26:37.189Z,11.85
2022-11-19T22:31:33.596Z,10.27
2022-11-19T22:36:31.185Z,11.57
2022-11-19T22:41:27.649Z,10.23
2022-11-19T22:46:24.230Z,10.40
2022-11-19T22:51:23.161Z,11.60
2022-11-19T23:01:21.900Z,11.15
2022-11-19T23:06:18.631Z,12.13
2022-11-19T23:11:37.026Z,11.15
2022-11-19T23:16:33.820Z,9.75
2022-11-19T23:21:30.424Z,10.23
2022-11-19T23:26:29.517Z,11.10
2022-11-19T23:31:29.017Z,10.35
2022-11-19T23:36:28.453Z,10.98
2022-11-19T23:41:24.874Z,10.73
2022-11-19T23:46:23.840Z,10.55
2022-11-19T23:56:20.382Z,10.60
